Terminal Aerodrome Forecast
Issued by NWS

Home | Current Version | Previous Version | Text Only | Print | Product List | Glossary On
Versions: 1 2 3 4 5 6 7 8 9 10 11 12 13 14 15 16 17 18 19 20 21 22
000
FTUS46 KSEW 271700
TAFBLI
TAF
KBLI 271729Z 2718/2818 17009KT P6SM SCT060 BKN070 OVC200
     FM272100 19003KT P6SM VCSH OVC015
     FM281100 00000KT 4SM BR OVC012=

USA.gov is the U.S. government's official web portal to all federal, state and local government web resources and services.